AirNav   Air Wisconsin pilot careers
 
 1043 users online  

6TS6 Wood Crest Ranch Airport
Normangee, Texas, USA

GOING TO NORMANGEE?


FAA INFORMATION EFFECTIVE 01 FEBRUARY 2018

Location

FAA Identifier: 6TS6
Lat/Long: 31-02-29.6690N / 096-12-05.8580W
31-02.494483N / 096-12.097633W
31.0415747 / -96.2016272
(estimated)
Elevation: 410 ft. / 125 m (estimated)
Variation: 06E (1985)
From city: 6 miles W of NORMANGEE, TX
Time zone: UTC -6 (UTC -5 during Daylight Saving Time)
Zip code: 77871

Airport Operations

Airport use: Private use. Permission required prior to landing
Activation date: 07/1985
Control tower: no
ARTCC: HOUSTON CENTER
FSS: MONTGOMERY COUNTY FLIGHT SERVICE STATION
Attendance: UNATNDD
Wind indicator: yes
Segmented circle: yes

Nearby radio navigation aids

VOR radial/distance  VOR name  Freq  Var
LOAr240/13.0LEONA VORTAC110.8008E
CLLr015/28.5COLLEGE STATION VORTAC113.3008E
GNLr146/37.0GROESBECK VOR/DME108.8005E

 
NDB name  Hdg/Dist  Freq  Var  ID
HUNTSVILLE294/36.330806EUTS ..- - ...
MEXIA152/39.332904ELXY .-.. -..- -.--

Airport Services

Runway Information

Runway 3/21

Dimensions: 2600 x 40 ft. / 792 x 12 m
Surface: gravel
RUNWAY 3  RUNWAY 21
Traffic pattern: rightleft
Displaced threshold: 200 ft.no
Obstructions: 35 ft. pline, 200 ft. from runway50 ft. trees, 700 ft. from runway

Airport Ownership and Management from official FAA records

Ownership: Privately-owned
Owner: WILLIAM C. RICE JR.
17325 FM 3 SOUTH
NORMANGEE, TX 77871
Phone 936-396-6632
Manager: WILLIAM C. RICE JR.
17325 FM 3 SOUTH
NORMANGEE, TX 77871
Phone 409-396-6632

Airport Operational Statistics

Aircraft based on the field: 1
Single engine airplanes: 1
    

Instrument Procedures

There are no published instrument procedures at 6TS6.

Some nearby airports with instrument procedures:

51R - Madisonville Municipal Airport (15 nm SE)
KCFD - Coulter Field Airport (21 nm S)
KLHB - Hearne Municipal Airport (24 nm SW)
KCLL - Easterwood Field Airport (28 nm S)
KUTS - Huntsville Municipal Airport (36 nm SE)
 
Loc | Ops | Rwys | IFR | FBO | Links
Com | Nav | Svcs | Stats | Notes

AirNav Hotels Sweepstakes
 
Area around 6TS6 (Wood Crest Ranch Airport)
 
Road maps at: MapQuest Bing Google
 
Aerial photo
No photo
 
Sectional chart

 
Airport distance calculator
Flying to Wood Crest Ranch Airport? Find the distance to fly.

From to 6TS6

Sunrise and sunset
Times for 25-Feb-2018
 Local
(UTC-6)
 Zulu
(UTC)
Morning civil twilight06:3212:32
Sunrise06:5712:57
Sunset18:1900:19
Evening civil twilight18:4300:43

Current date and time
Zulu (UTC)  25-Feb-2018 19:18:02
Local (UTC-6)  25-Feb-2018 13:18:02
 
METAR
KCFD 
21nm S 
251855Z AUTO 06011KT 1 1/2SM +VCTSRA SCT020 BKN030 OVC038 13/10 A3002 RMK AO2 LTG DSNT ALQS P0020 T01280104
KLHB 
24nm SW 
251855Z AUTO 09006KT 1 3/4SM +VCTSRA SCT020 BKN041 OVC050 13/11 A3002 RMK AO2 LTG DSNT ALQS P0017 T01250111
KCLL 
29nm S 
251853Z 07008KT 10SM VCTS FEW021 OVC028 14/11 A3001 RMK AO2 LTG DSNT W-NE SLP159 T01390106
KUTS 
36nm SE 
251902Z AUTO 06009G17KT 9SM -RA SCT012 OVC030 12/10 A2999 RMK AO2 LTG DSNT E P0000 T01220100
KLXY 
39nm NW 
251855Z AUTO 06008G19KT 040V100 10SM -DZ BKN110 13/08 A3000 RMK AO2 T01270084
KT35 
41nm W 
251855Z AUTO 06008KT 10SM OVC070 14/11 A3001 RMK AO2 P0001 T01390110
KRWV 
41nm SW 
251855Z AUTO 08006KT 10SM -RA OVC032 13/11 A3000 RMK AO2 P0005 T01350112
TAF
KCLL 
29nm S 
251740Z 2518/2618 04008KT P6SM VCTS BKN025CB OVC060 TEMPO 2518/2520 2SM -TSRA BR FM260000 34006KT 6SM BR VCSH OVC012 FM260400 01004KT 3SM BR OVC007 FM261500 02008KT P6SM OVC015
NOTAMs
Click for the latest NOTAMs
NOTAMs are issued by the DoD/FAA and will open in a separate window not controlled by AirNav.

 

 
 

Would you like to see your business listed on this page?

 If your business provides an interesting product or service to pilots, flight crews, aircraft, or users of the Wood Crest Ranch Airport, you should consider listing it here.  To start the listing process, click on the button below
 
Add a business
 

Other Pages about Wood Crest Ranch Airport

Update a link
 
Copyright © AirNav, LLC. All rights reserved. Privacy Policy  Contact